Cumberland, RI

8:22 AM EST on February 27, 2015 (GMT -0500)
North Central State | Change Station
CLOSE
Current Station
Airport
Location: Pawtucket,
Elevation: 440 ft
Nearby Weather Stations

Elev 440 ft 41.92 °N, 71.49 °W | Updated 7 minutes ago

Clear
Clear
12 °F
Feels Like 1 °F
N
8
Wind Variable Wind from NNW

Today
High -- | Low -- °F
--% Chance of Precip.
Yesterday
High -- | Low -- °F
Precip. -- in
6:24 AM 5:33 PM
Waxing Gibbous, 68% visible
Pressure 30.28 in
Visibility 10.0 miles
Clouds Clear
Windchill 1 °F
Dew Point 0 °F
Humidity 57%
Rainfall 0.00 in
Snow Depth Not available.
UV 1 out of 12
Pollen .40 out of 12
Air Quality Not available.
Flu Activity Not available.
METAR KSFZ 271315Z 33007KT 10SM CLR M11/M18 A3028 RMK AO1

More Conditions Fewer Conditions

Pressure 30.28 in
Visibility 10.0 miles
Clouds Clear
Windchill 1 °F
Dew Point 0 °F
Humidity 57%
Rainfall 0.00 in
Snow Depth Not available.
UV 1 out of 12
Pollen .40 out of 12
Air Quality Not available.
Flu Activity Not available.
METAR KSFZ 271315Z 33007KT 10SM CLR M11/M18 A3028 RMK AO1

More Conditions Fewer Conditions

10-Day Weather Forecast

Almanac

Astronomy

Feb. 27, 2015 Rise Set
Actual Time
Civil Twilight
Nautical Twilight
Astronomical Twilight
Moon
Length of Visible Light
Length of Day
Tomorrow will be .
, % of the Moon is Illuminated

Today's Extremes

State Highs State Lows

Community

WunderPhotos

Upload Photos

1,800,673 photos uploaded!

WunderBlogs® & News

Nearby

Air Quality

  Air Quality AQ Index Pollutant
Not available.

Snow Depth

Station Depth Elevation

Earthquake Activity

City Distance Mag. Time & Date
Minimum magnitude displayed is 2.5.

Coastal Water Temperatures

Place Temperature

Nearby Weather Stations